sensor_id;sensor_type;location;lat;lon;timestamp;temperature;humidity
63976;DHT22;50167;47.958;21.780;2022-08-14T00:00:08;21.80;55.86
63976;DHT22;50167;47.958;21.780;2022-08-14T00:02:34;21.52;56.29
63976;DHT22;50167;47.958;21.780;2022-08-14T00:05:00;21.25;56.38
63976;DHT22;50167;47.958;21.780;2022-08-14T00:07:27;21.07;58.11
63976;DHT22;50167;47.958;21.780;2022-08-14T00:09:53;20.86;58.48
63976;DHT22;50167;47.958;21.780;2022-08-14T00:12:19;20.66;58.93
63976;DHT22;50167;47.958;21.780;2022-08-14T00:14:45;20.48;58.98
63976;DHT22;50167;47.958;21.780;2022-08-14T00:17:11;20.32;59.49
63976;DHT22;50167;47.958;21.780;2022-08-14T00:19:37;20.21;60.27
63976;DHT22;50167;47.958;21.780;2022-08-14T00:22:03;20.08;61.59
63976;DHT22;50167;47.958;21.780;2022-08-14T00:24:29;20.20;65.53
63976;DHT22;50167;47.958;21.780;2022-08-14T00:26:56;21.62;75.08
63976;DHT22;50167;47.958;21.780;2022-08-14T00:29:23;22.72;73.85
63976;DHT22;50167;47.958;21.780;2022-08-14T00:31:48;23.36;72.42
63976;DHT22;50167;47.958;21.780;2022-08-14T00:34:14;23.73;70.30
63976;DHT22;50167;47.958;21.780;2022-08-14T00:36:40;24.01;67.64
63976;DHT22;50167;47.958;21.780;2022-08-14T00:39:07;24.26;65.79
63976;DHT22;50167;47.958;21.780;2022-08-14T00:41:34;24.49;65.07
63976;DHT22;50167;47.958;21.780;2022-08-14T00:44:00;24.66;64.31
63976;DHT22;50167;47.958;21.780;2022-08-14T00:46:26;24.80;63.60
63976;DHT22;50167;47.958;21.780;2022-08-14T00:48:52;24.88;62.83
63976;DHT22;50167;47.958;21.780;2022-08-14T00:51:18;24.98;61.74
63976;DHT22;50167;47.958;21.780;2022-08-14T00:53:46;25.08;61.39
63976;DHT22;50167;47.958;21.780;2022-08-14T00:56:13;25.18;60.79
63976;DHT22;50167;47.958;21.780;2022-08-14T00:58:39;25.26;60.21
63976;DHT22;50167;47.958;21.780;2022-08-14T01:01:08;25.30;60.46
63976;DHT22;50167;47.958;21.780;2022-08-14T01:03:37;25.39;59.75
63976;DHT22;50167;47.958;21.780;2022-08-14T01:06:06;25.40;59.98
63976;DHT22;50167;47.958;21.780;2022-08-14T01:08:33;25.46;59.70
63976;DHT22;50167;47.958;21.780;2022-08-14T01:11:00;25.32;56.89
63976;DHT22;50167;47.958;21.780;2022-08-14T01:13:33;24.46;55.20
63976;DHT22;50167;47.958;21.780;2022-08-14T01:16:00;23.61;55.33
63976;DHT22;50167;47.958;21.780;2022-08-14T01:18:28;22.93;56.90
63976;DHT22;50167;47.958;21.780;2022-08-14T01:21:13;22.35;55.36
63976;DHT22;50167;47.958;21.780;2022-08-14T01:23:45;21.91;55.27
63976;DHT22;50167;47.958;21.780;2022-08-14T01:26:12;21.49;56.25
63976;DHT22;50167;47.958;21.780;2022-08-14T01:28:38;21.15;56.77
63976;DHT22;50167;47.958;21.780;2022-08-14T01:31:15;20.83;57.32
63976;DHT22;50167;47.958;21.780;2022-08-14T01:33:34;20.55;59.17
63976;DHT22;50167;47.958;21.780;2022-08-14T01:36:03;20.24;60.05
63976;DHT22;50167;47.958;21.780;2022-08-14T01:38:29;20.05;60.76
63976;DHT22;50167;47.958;21.780;2022-08-14T01:40:57;19.86;61.49
63976;DHT22;50167;47.958;21.780;2022-08-14T01:43:23;19.80;64.39
63976;DHT22;50167;47.958;21.780;2022-08-14T01:45:51;21.14;73.53
63976;DHT22;50167;47.958;21.780;2022-08-14T01:48:17;22.16;73.59
63976;DHT22;50167;47.958;21.780;2022-08-14T01:50:44;22.76;72.32
63976;DHT22;50167;47.958;21.780;2022-08-14T01:53:10;23.18;70.75
63976;DHT22;50167;47.958;21.780;2022-08-14T01:55:38;23.48;69.07
63976;DHT22;50167;47.958;21.780;2022-08-14T01:58:04;23.69;67.60
63976;DHT22;50167;47.958;21.780;2022-08-14T02:00:30;23.96;66.48
63976;DHT22;50167;47.958;21.780;2022-08-14T02:02:56;24.11;65.96
63976;DHT22;50167;47.958;21.780;2022-08-14T02:05:26;24.27;64.63
63976;DHT22;50167;47.958;21.780;2022-08-14T02:07:54;24.43;63.79
63976;DHT22;50167;47.958;21.780;2022-08-14T02:10:21;24.56;63.07
63976;DHT22;50167;47.958;21.780;2022-08-14T02:12:47;24.66;62.78
63976;DHT22;50167;47.958;21.780;2022-08-14T02:15:14;24.71;62.22
63976;DHT22;50167;47.958;21.780;2022-08-14T02:17:41;24.70;62.05
63976;DHT22;50167;47.958;21.780;2022-08-14T02:20:08;24.63;60.08
63976;DHT22;50167;47.958;21.780;2022-08-14T02:22:34;24.01;57.28
63976;DHT22;50167;47.958;21.780;2022-08-14T02:25:01;23.09;56.89
63976;DHT22;50167;47.958;21.780;2022-08-14T02:27:27;22.37;56.52
63976;DHT22;50167;47.958;21.780;2022-08-14T02:29:54;21.83;57.01
63976;DHT22;50167;47.958;21.780;2022-08-14T02:32:20;21.37;56.47
63976;DHT22;50167;47.958;21.780;2022-08-14T02:34:46;20.93;57.79
63976;DHT22;50167;47.958;21.780;2022-08-14T02:37:13;20.63;57.92
63976;DHT22;50167;47.958;21.780;2022-08-14T02:39:42;20.29;60.36
63976;DHT22;50167;47.958;21.780;2022-08-14T02:42:16;20.05;59.46
63976;DHT22;50167;47.958;21.780;2022-08-14T02:44:43;19.84;61.86
63976;DHT22;50167;47.958;21.780;2022-08-14T02:47:07;19.65;64.28
63976;DHT22;50167;47.958;21.780;2022-08-14T02:49:33;20.69;72.50
63976;DHT22;50167;47.958;21.780;2022-08-14T02:52:00;21.76;72.85
63976;DHT22;50167;47.958;21.780;2022-08-14T02:54:26;22.34;71.86
63976;DHT22;50167;47.958;21.780;2022-08-14T02:56:57;22.71;70.43
63976;DHT22;50167;47.958;21.780;2022-08-14T02:59:22;23.00;69.15
63976;DHT22;50167;47.958;21.780;2022-08-14T03:01:48;23.26;68.14
63976;DHT22;50167;47.958;21.780;2022-08-14T03:04:15;23.44;67.04
63976;DHT22;50167;47.958;21.780;2022-08-14T03:06:41;23.60;66.43
63976;DHT22;50167;47.958;21.780;2022-08-14T03:09:08;23.78;65.59
63976;DHT22;50167;47.958;21.780;2022-08-14T03:11:36;23.95;64.95
63976;DHT22;50167;47.958;21.780;2022-08-14T03:14:02;24.11;63.95
63976;DHT22;50167;47.958;21.780;2022-08-14T03:16:29;24.27;63.42
63976;DHT22;50167;47.958;21.780;2022-08-14T03:18:57;24.39;62.72
63976;DHT22;50167;47.958;21.780;2022-08-14T03:21:25;24.47;62.57
63976;DHT22;50167;47.958;21.780;2022-08-14T03:23:52;24.53;62.43
63976;DHT22;50167;47.958;21.780;2022-08-14T03:26:20;24.57;61.92
63976;DHT22;50167;47.958;21.780;2022-08-14T03:28:49;24.60;61.27
63976;DHT22;50167;47.958;21.780;2022-08-14T03:31:17;24.61;61.02
63976;DHT22;50167;47.958;21.780;2022-08-14T03:33:45;24.63;60.87
63976;DHT22;50167;47.958;21.780;2022-08-14T03:36:12;24.80;61.07
63976;DHT22;50167;47.958;21.780;2022-08-14T03:38:41;24.88;60.96
63976;DHT22;50167;47.958;21.780;2022-08-14T03:41:10;24.91;61.07
63976;DHT22;50167;47.958;21.780;2022-08-14T03:43:42;24.92;60.72
63976;DHT22;50167;47.958;21.780;2022-08-14T03:46:08;24.97;60.54
63976;DHT22;50167;47.958;21.780;2022-08-14T03:48:36;25.07;59.96
63976;DHT22;50167;47.958;21.780;2022-08-14T03:51:04;25.08;59.80
63976;DHT22;50167;47.958;21.780;2022-08-14T03:53:33;25.11;59.61
63976;DHT22;50167;47.958;21.780;2022-08-14T03:56:01;25.14;59.39
63976;DHT22;50167;47.958;21.780;2022-08-14T03:58:27;24.70;56.06
63976;DHT22;50167;47.958;21.780;2022-08-14T04:00:54;23.73;54.57
63976;DHT22;50167;47.958;21.780;2022-08-14T04:03:20;23.02;54.71
63976;DHT22;50167;47.958;21.780;2022-08-14T04:05:48;22.41;54.99
63976;DHT22;50167;47.958;21.780;2022-08-14T04:08:13;21.91;54.46
63976;DHT22;50167;47.958;21.780;2022-08-14T04:10:39;21.47;54.99
63976;DHT22;50167;47.958;21.780;2022-08-14T04:13:05;21.13;55.79
63976;DHT22;50167;47.958;21.780;2022-08-14T04:15:32;20.83;56.61
63976;DHT22;50167;47.958;21.780;2022-08-14T04:18:03;20.56;57.28
63976;DHT22;50167;47.958;21.780;2022-08-14T04:20:31;20.36;59.03
63976;DHT22;50167;47.958;21.780;2022-08-14T04:22:56;20.17;58.69
63976;DHT22;50167;47.958;21.780;2022-08-14T04:25:22;20.04;59.56
63976;DHT22;50167;47.958;21.780;2022-08-14T04:27:49;19.90;60.75
63976;DHT22;50167;47.958;21.780;2022-08-14T04:30:15;19.78;61.23
63976;DHT22;50167;47.958;21.780;2022-08-14T04:32:41;19.70;62.28
63976;DHT22;50167;47.958;21.780;2022-08-14T04:35:07;20.46;71.31
63976;DHT22;50167;47.958;21.780;2022-08-14T04:37:35;21.85;74.74
63976;DHT22;50167;47.958;21.780;2022-08-14T04:40:19;22.89;73.90
63976;DHT22;50167;47.958;21.780;2022-08-14T04:43:04;23.64;70.12
63976;DHT22;50167;47.958;21.780;2022-08-14T04:45:48;24.22;68.09
63976;DHT22;50167;47.958;21.780;2022-08-14T04:48:15;24.61;66.43
63976;DHT22;50167;47.958;21.780;2022-08-14T04:50:50;24.91;64.07
63976;DHT22;50167;47.958;21.780;2022-08-14T04:53:19;25.22;63.89
63976;DHT22;50167;47.958;21.780;2022-08-14T04:55:47;25.55;62.50
63976;DHT22;50167;47.958;21.780;2022-08-14T04:58:16;25.81;62.09
63976;DHT22;50167;47.958;21.780;2022-08-14T05:00:46;25.94;60.66
63976;DHT22;50167;47.958;21.780;2022-08-14T05:03:15;25.72;56.28
63976;DHT22;50167;47.958;21.780;2022-08-14T05:05:41;24.84;55.09
63976;DHT22;50167;47.958;21.780;2022-08-14T05:08:09;24.08;56.63
63976;DHT22;50167;47.958;21.780;2022-08-14T05:10:39;23.53;58.42
63976;DHT22;50167;47.958;21.780;2022-08-14T05:13:06;23.10;61.37
63976;DHT22;50167;47.958;21.780;2022-08-14T05:15:34;23.84;65.01
63976;DHT22;50167;47.958;21.780;2022-08-14T05:18:11;24.88;61.97
63976;DHT22;50167;47.958;21.780;2022-08-14T05:20:39;25.53;62.31
63976;DHT22;50167;47.958;21.780;2022-08-14T05:23:06;25.97;62.44
63976;DHT22;50167;47.958;21.780;2022-08-14T05:25:33;26.11;57.95
63976;DHT22;50167;47.958;21.780;2022-08-14T05:28:12;25.32;56.52
63976;DHT22;50167;47.958;21.780;2022-08-14T05:30:36;24.59;57.01
63976;DHT22;50167;47.958;21.780;2022-08-14T05:33:08;24.19;62.62
63976;DHT22;50167;47.958;21.780;2022-08-14T05:35:31;25.08;62.86
63976;DHT22;50167;47.958;21.780;2022-08-14T05:37:58;25.66;59.87
63976;DHT22;50167;47.958;21.780;2022-08-14T05:40:25;26.18;61.08
63976;DHT22;50167;47.958;21.780;2022-08-14T05:42:51;26.36;57.95
63976;DHT22;50167;47.958;21.780;2022-08-14T05:45:18;25.94;55.30
63976;DHT22;50167;47.958;21.780;2022-08-14T05:47:44;25.26;55.18
63976;DHT22;50167;47.958;21.780;2022-08-14T05:50:11;24.73;60.63
63976;DHT22;50167;47.958;21.780;2022-08-14T05:52:38;24.33;58.54
63976;DHT22;50167;47.958;21.780;2022-08-14T05:55:06;24.66;64.66
63976;DHT22;50167;47.958;21.780;2022-08-14T05:57:32;25.80;65.02
63976;DHT22;50167;47.958;21.780;2022-08-14T05:59:58;26.62;63.24
63976;DHT22;50167;47.958;21.780;2022-08-14T06:02:24;26.96;58.41
63976;DHT22;50167;47.958;21.780;2022-08-14T06:04:50;26.41;56.28
63976;DHT22;50167;47.958;21.780;2022-08-14T06:07:16;25.77;57.07
63976;DHT22;50167;47.958;21.780;2022-08-14T06:09:42;25.33;59.01
63976;DHT22;50167;47.958;21.780;2022-08-14T06:12:09;25.07;55.95
63976;DHT22;50167;47.958;21.780;2022-08-14T06:14:36;24.90;58.23
63976;DHT22;50167;47.958;21.780;2022-08-14T06:17:03;24.75;57.32
63976;DHT22;50167;47.958;21.780;2022-08-14T06:19:29;24.70;59.17
63976;DHT22;50167;47.958;21.780;2022-08-14T06:21:55;25.08;64.75
63976;DHT22;50167;47.958;21.780;2022-08-14T06:24:20;26.28;64.19
63976;DHT22;50167;47.958;21.780;2022-08-14T06:26:46;27.10;60.06
63976;DHT22;50167;47.958;21.780;2022-08-14T06:29:12;26.93;57.26
63976;DHT22;50167;47.958;21.780;2022-08-14T06:31:38;26.36;56.37
63976;DHT22;50167;47.958;21.780;2022-08-14T06:34:04;26.00;57.60
63976;DHT22;50167;47.958;21.780;2022-08-14T06:36:29;25.72;59.22
63976;DHT22;50167;47.958;21.780;2022-08-14T06:38:55;25.55;59.99
63976;DHT22;50167;47.958;21.780;2022-08-14T06:41:21;25.43;59.37
63976;DHT22;50167;47.958;21.780;2022-08-14T06:43:48;25.38;57.91
63976;DHT22;50167;47.958;21.780;2022-08-14T06:46:14;25.42;60.46
63976;DHT22;50167;47.958;21.780;2022-08-14T06:48:40;25.39;60.85
63976;DHT22;50167;47.958;21.780;2022-08-14T06:51:05;25.42;60.53
63976;DHT22;50167;47.958;21.780;2022-08-14T06:53:31;25.91;65.80
63976;DHT22;50167;47.958;21.780;2022-08-14T06:55:58;27.25;59.67
63976;DHT22;50167;47.958;21.780;2022-08-14T06:58:23;27.58;57.00
63976;DHT22;50167;47.958;21.780;2022-08-14T07:00:49;27.22;56.99
63976;DHT22;50167;47.958;21.780;2022-08-14T07:03:34;26.89;58.03
63976;DHT22;50167;47.958;21.780;2022-08-14T07:06:19;26.64;56.02
63976;DHT22;50167;47.958;21.780;2022-08-14T07:08:45;26.58;58.48
63976;DHT22;50167;47.958;21.780;2022-08-14T07:11:12;26.49;56.68
63976;DHT22;50167;47.958;21.780;2022-08-14T07:13:38;26.49;57.22
63976;DHT22;50167;47.958;21.780;2022-08-14T07:16:04;26.51;57.60
63976;DHT22;50167;47.958;21.780;2022-08-14T07:18:32;26.60;57.54
63976;DHT22;50167;47.958;21.780;2022-08-14T07:21:00;26.64;58.74
63976;DHT22;50167;47.958;21.780;2022-08-14T07:23:27;26.70;56.84
63976;DHT22;50167;47.958;21.780;2022-08-14T07:25:56;26.76;59.28
63976;DHT22;50167;47.958;21.780;2022-08-14T07:28:25;26.79;58.77
63976;DHT22;50167;47.958;21.780;2022-08-14T07:30:53;26.78;58.19
63976;DHT22;50167;47.958;21.780;2022-08-14T07:33:24;26.73;58.12
63976;DHT22;50167;47.958;21.780;2022-08-14T07:35:51;26.69;57.82
63976;DHT22;50167;47.958;21.780;2022-08-14T07:38:19;26.69;57.68
63976;DHT22;50167;47.958;21.780;2022-08-14T07:40:46;26.76;58.30
63976;DHT22;50167;47.958;21.780;2022-08-14T07:43:13;26.85;58.46
63976;DHT22;50167;47.958;21.780;2022-08-14T07:45:39;26.93;57.41
63976;DHT22;50167;47.958;21.780;2022-08-14T07:48:06;27.04;58.19
63976;DHT22;50167;47.958;21.780;2022-08-14T07:50:32;27.14;58.03
63976;DHT22;50167;47.958;21.780;2022-08-14T07:52:58;27.27;57.81
63976;DHT22;50167;47.958;21.780;2022-08-14T07:55:24;27.38;57.26
63976;DHT22;50167;47.958;21.780;2022-08-14T07:57:51;27.51;56.46
63976;DHT22;50167;47.958;21.780;2022-08-14T08:00:20;27.62;57.69
63976;DHT22;50167;47.958;21.780;2022-08-14T08:02:48;27.69;56.65
63976;DHT22;50167;47.958;21.780;2022-08-14T08:05:17;27.73;56.64
63976;DHT22;50167;47.958;21.780;2022-08-14T08:07:45;27.80;56.55
63976;DHT22;50167;47.958;21.780;2022-08-14T08:10:20;27.89;56.38
63976;DHT22;50167;47.958;21.780;2022-08-14T08:13:07;27.99;56.50
63976;DHT22;50167;47.958;21.780;2022-08-14T08:15:36;28.10;56.22
63976;DHT22;50167;47.958;21.780;2022-08-14T08:18:03;28.22;56.19
63976;DHT22;50167;47.958;21.780;2022-08-14T08:20:32;28.31;55.54
63976;DHT22;50167;47.958;21.780;2022-08-14T08:22:59;28.33;55.17
63976;DHT22;50167;47.958;21.780;2022-08-14T08:25:33;28.38;55.16
63976;DHT22;50167;47.958;21.780;2022-08-14T08:30:37;28.50;54.75
63976;DHT22;50167;47.958;21.780;2022-08-14T08:33:04;28.61;54.04
63976;DHT22;50167;47.958;21.780;2022-08-14T08:35:33;28.74;54.47
63976;DHT22;50167;47.958;21.780;2022-08-14T08:38:04;28.82;53.93
63976;DHT22;50167;47.958;21.780;2022-08-14T08:40:38;28.85;53.24
63976;DHT22;50167;47.958;21.780;2022-08-14T08:43:05;28.89;53.01
63976;DHT22;50167;47.958;21.780;2022-08-14T08:45:34;28.98;52.68
63976;DHT22;50167;47.958;21.780;2022-08-14T08:48:00;29.05;52.88
63976;DHT22;50167;47.958;21.780;2022-08-14T08:50:33;29.14;52.75
63976;DHT22;50167;47.958;21.780;2022-08-14T08:53:04;29.27;52.03
63976;DHT22;50167;47.958;21.780;2022-08-14T08:55:36;29.38;51.34
63976;DHT22;50167;47.958;21.780;2022-08-14T08:58:08;29.41;50.69
63976;DHT22;50167;47.958;21.780;2022-08-14T09:00:35;29.43;50.77
63976;DHT22;50167;47.958;21.780;2022-08-14T09:03:10;29.48;50.57
63976;DHT22;50167;47.958;21.780;2022-08-14T09:05:47;29.54;50.18
63976;DHT22;50167;47.958;21.780;2022-08-14T09:08:18;29.60;49.81
63976;DHT22;50167;47.958;21.780;2022-08-14T09:10:42;29.71;49.42
63976;DHT22;50167;47.958;21.780;2022-08-14T09:13:10;29.88;48.92
63976;DHT22;50167;47.958;21.780;2022-08-14T09:15:39;30.06;49.66
63976;DHT22;50167;47.958;21.780;2022-08-14T09:18:06;30.22;49.62
63976;DHT22;50167;47.958;21.780;2022-08-14T09:20:32;30.34;49.36
63976;DHT22;50167;47.958;21.780;2022-08-14T09:22:59;30.50;49.34
63976;DHT22;50167;47.958;21.780;2022-08-14T09:25:25;30.69;48.87
63976;DHT22;50167;47.958;21.780;2022-08-14T09:27:51;30.81;49.05
63976;DHT22;50167;47.958;21.780;2022-08-14T09:30:16;30.85;47.01
63976;DHT22;50167;47.958;21.780;2022-08-14T09:43:53;31.14;45.71
63976;DHT22;50167;47.958;21.780;2022-08-14T09:46:19;31.29;46.32
63976;DHT22;50167;47.958;21.780;2022-08-14T09:48:56;31.35;45.67
63976;DHT22;50167;47.958;21.780;2022-08-14T09:51:21;31.46;44.42
63976;DHT22;50167;47.958;21.780;2022-08-14T09:54:06;31.59;45.75
63976;DHT22;50167;47.958;21.780;2022-08-14T09:56:45;31.69;45.27
63976;DHT22;50167;47.958;21.780;2022-08-14T09:59:13;31.73;44.78
63976;DHT22;50167;47.958;21.780;2022-08-14T10:01:39;31.83;45.14
63976;DHT22;50167;47.958;21.780;2022-08-14T10:04:18;31.83;44.55
63976;DHT22;50167;47.958;21.780;2022-08-14T10:06:45;31.86;44.42
63976;DHT22;50167;47.958;21.780;2022-08-14T10:09:13;31.88;43.74
63976;DHT22;50167;47.958;21.780;2022-08-14T10:11:51;31.88;43.45
63976;DHT22;50167;47.958;21.780;2022-08-14T10:14:14;31.87;43.51
63976;DHT22;50167;47.958;21.780;2022-08-14T10:16:45;31.93;43.27
63976;DHT22;50167;47.958;21.780;2022-08-14T10:19:13;32.03;43.39
63976;DHT22;50167;47.958;21.780;2022-08-14T10:21:42;32.06;42.06
63976;DHT22;50167;47.958;21.780;2022-08-14T10:24:10;32.11;43.30
63976;DHT22;50167;47.958;21.780;2022-08-14T10:26:37;32.10;42.26
63976;DHT22;50167;47.958;21.780;2022-08-14T10:29:06;32.08;43.12
63976;DHT22;50167;47.958;21.780;2022-08-14T10:31:34;32.21;43.02
63976;DHT22;50167;47.958;21.780;2022-08-14T10:34:06;32.27;42.21
63976;DHT22;50167;47.958;21.780;2022-08-14T10:36:37;32.28;42.02
63976;DHT22;50167;47.958;21.780;2022-08-14T10:39:18;32.31;42.39
63976;DHT22;50167;47.958;21.780;2022-08-14T10:41:45;32.28;41.64
63976;DHT22;50167;47.958;21.780;2022-08-14T10:44:14;32.22;40.92
63976;DHT22;50167;47.958;21.780;2022-08-14T10:46:44;32.21;40.96
63976;DHT22;50167;47.958;21.780;2022-08-14T10:49:18;32.20;40.82
63976;DHT22;50167;47.958;21.780;2022-08-14T10:52:04;32.22;39.41
63976;DHT22;50167;47.958;21.780;2022-08-14T10:57:22;32.14;39.27
63976;DHT22;50167;47.958;21.780;2022-08-14T10:59:51;32.24;39.03
63976;DHT22;50167;47.958;21.780;2022-08-14T11:07:41;32.34;38.26
63976;DHT22;50167;47.958;21.780;2022-08-14T11:10:10;32.32;38.57
63976;DHT22;50167;47.958;21.780;2022-08-14T11:12:54;32.34;38.88
63976;DHT22;50167;47.958;21.780;2022-08-14T11:15:23;32.45;38.61
63976;DHT22;50167;47.958;21.780;2022-08-14T11:17:52;32.59;39.36
63976;DHT22;50167;47.958;21.780;2022-08-14T11:20:25;32.70;39.07
63976;DHT22;50167;47.958;21.780;2022-08-14T11:22:56;32.80;38.17
63976;DHT22;50167;47.958;21.780;2022-08-14T11:25:24;32.87;38.50
63976;DHT22;50167;47.958;21.780;2022-08-14T11:27:53;33.00;37.92
63976;DHT22;50167;47.958;21.780;2022-08-14T11:30:22;33.14;38.57
63976;DHT22;50167;47.958;21.780;2022-08-14T11:32:49;33.26;38.23
63976;DHT22;50167;47.958;21.780;2022-08-14T11:35:17;33.36;37.98
63976;DHT22;50167;47.958;21.780;2022-08-14T11:38:01;33.57;37.81
63976;DHT22;50167;47.958;21.780;2022-08-14T11:40:32;33.68;36.97
63976;DHT22;50167;47.958;21.780;2022-08-14T11:48:16;33.79;37.35
63976;DHT22;50167;47.958;21.780;2022-08-14T11:50:43;33.84;36.76
63976;DHT22;50167;47.958;21.780;2022-08-14T11:53:24;33.92;37.20
63976;DHT22;50167;47.958;21.780;2022-08-14T11:55:59;34.02;34.90
63976;DHT22;50167;47.958;21.780;2022-08-14T11:58:36;33.95;36.07
63976;DHT22;50167;47.958;21.780;2022-08-14T12:01:05;33.99;35.83
63976;DHT22;50167;47.958;21.780;2022-08-14T12:08:37;33.87;34.87
63976;DHT22;50167;47.958;21.780;2022-08-14T12:11:07;33.81;34.02
63976;DHT22;50167;47.958;21.780;2022-08-14T12:13:39;33.72;35.12
63976;DHT22;50167;47.958;21.780;2022-08-14T12:16:09;33.78;35.41
63976;DHT22;50167;47.958;21.780;2022-08-14T12:21:18;34.02;35.36
63976;DHT22;50167;47.958;21.780;2022-08-14T12:23:40;34.24;35.78
63976;DHT22;50167;47.958;21.780;2022-08-14T12:26:15;34.39;35.73
63976;DHT22;50167;47.958;21.780;2022-08-14T12:28:43;34.47;35.67
63976;DHT22;50167;47.958;21.780;2022-08-14T12:31:14;34.61;35.61
63976;DHT22;50167;47.958;21.780;2022-08-14T12:33:42;34.71;35.51
63976;DHT22;50167;47.958;21.780;2022-08-14T12:36:08;34.77;34.91
63976;DHT22;50167;47.958;21.780;2022-08-14T12:38:40;34.85;34.35
63976;DHT22;50167;47.958;21.780;2022-08-14T12:41:16;35.18;33.91
63976;DHT22;50167;47.958;21.780;2022-08-14T12:43:50;35.66;32.96
63976;DHT22;50167;47.958;21.780;2022-08-14T12:46:30;36.26;33.47
63976;DHT22;50167;47.958;21.780;2022-08-14T12:48:59;36.89;31.43
63976;DHT22;50167;47.958;21.780;2022-08-14T12:51:26;37.34;30.78
63976;DHT22;50167;47.958;21.780;2022-08-14T12:53:54;37.89;29.67
63976;DHT22;50167;47.958;21.780;2022-08-14T12:56:22;38.59;28.53
63976;DHT22;50167;47.958;21.780;2022-08-14T12:58:57;39.26;29.06
63976;DHT22;50167;47.958;21.780;2022-08-14T13:01:25;39.69;28.32
63976;DHT22;50167;47.958;21.780;2022-08-14T13:04:09;40.08;27.92
63976;DHT22;50167;47.958;21.780;2022-08-14T13:06:39;40.55;26.88
63976;DHT22;50167;47.958;21.780;2022-08-14T13:09:07;40.88;26.70
63976;DHT22;50167;47.958;21.780;2022-08-14T13:11:37;41.22;26.58
63976;DHT22;50167;47.958;21.780;2022-08-14T13:14:05;41.64;25.59
63976;DHT22;50167;47.958;21.780;2022-08-14T13:16:31;41.99;24.57
63976;DHT22;50167;47.958;21.780;2022-08-14T13:18:57;42.23;24.68
63976;DHT22;50167;47.958;21.780;2022-08-14T13:21:25;42.32;24.53
63976;DHT22;50167;47.958;21.780;2022-08-14T13:23:52;42.47;22.50
63976;DHT22;50167;47.958;21.780;2022-08-14T13:26:19;42.78;22.96
63976;DHT22;50167;47.958;21.780;2022-08-14T13:28:47;43.14;23.98
63976;DHT22;50167;47.958;21.780;2022-08-14T13:31:15;43.28;23.44
63976;DHT22;50167;47.958;21.780;2022-08-14T13:33:41;43.49;23.79
63976;DHT22;50167;47.958;21.780;2022-08-14T13:36:08;43.67;21.52
63976;DHT22;50167;47.958;21.780;2022-08-14T13:38:35;43.90;22.95
63976;DHT22;50167;47.958;21.780;2022-08-14T13:41:02;44.01;21.26
63976;DHT22;50167;47.958;21.780;2022-08-14T13:43:28;44.08;22.71
63976;DHT22;50167;47.958;21.780;2022-08-14T13:45:54;44.20;22.84
63976;DHT22;50167;47.958;21.780;2022-08-14T13:48:23;44.31;21.77
63976;DHT22;50167;47.958;21.780;2022-08-14T13:50:54;44.39;20.81
63976;DHT22;50167;47.958;21.780;2022-08-14T13:53:22;44.47;21.62
63976;DHT22;50167;47.958;21.780;2022-08-14T13:55:49;44.55;21.82
63976;DHT22;50167;47.958;21.780;2022-08-14T13:58:15;44.58;21.38
63976;DHT22;50167;47.958;21.780;2022-08-14T14:00:41;44.62;20.05
63976;DHT22;50167;47.958;21.780;2022-08-14T14:03:08;44.51;20.77
63976;DHT22;50167;47.958;21.780;2022-08-14T14:05:36;44.27;21.16
63976;DHT22;50167;47.958;21.780;2022-08-14T14:08:04;44.16;21.19
63976;DHT22;50167;47.958;21.780;2022-08-14T14:10:33;44.20;20.70
63976;DHT22;50167;47.958;21.780;2022-08-14T14:13:00;44.34;20.81
63976;DHT22;50167;47.958;21.780;2022-08-14T14:15:26;44.27;20.38
63976;DHT22;50167;47.958;21.780;2022-08-14T14:17:52;44.11;20.29
63976;DHT22;50167;47.958;21.780;2022-08-14T14:20:20;44.20;21.06
63976;DHT22;50167;47.958;21.780;2022-08-14T14:22:48;44.21;21.03
63976;DHT22;50167;47.958;21.780;2022-08-14T14:25:16;44.16;20.14
63976;DHT22;50167;47.958;21.780;2022-08-14T14:27:45;44.34;20.02
63976;DHT22;50167;47.958;21.780;2022-08-14T14:30:12;44.65;20.51
63976;DHT22;50167;47.958;21.780;2022-08-14T15:10:45;40.50;20.18
63976;DHT22;50167;47.958;21.780;2022-08-14T15:13:12;39.29;21.18
63976;DHT22;50167;47.958;21.780;2022-08-14T15:15:38;38.35;22.19
63976;DHT22;50167;47.958;21.780;2022-08-14T15:18:05;37.79;22.66
63976;DHT22;50167;47.958;21.780;2022-08-14T15:20:32;37.45;23.35
63976;DHT22;50167;47.958;21.780;2022-08-14T15:22:59;37.30;23.66
63976;DHT22;50167;47.958;21.780;2022-08-14T15:25:25;37.31;23.76
63976;DHT22;50167;47.958;21.780;2022-08-14T15:27:53;37.17;23.49
63976;DHT22;50167;47.958;21.780;2022-08-14T15:30:19;36.87;23.52
63976;DHT22;50167;47.958;21.780;2022-08-14T15:32:45;36.54;24.17
63976;DHT22;50167;47.958;21.780;2022-08-14T15:35:11;36.26;24.78
63976;DHT22;50167;47.958;21.780;2022-08-14T15:37:37;36.16;25.06
63976;DHT22;50167;47.958;21.780;2022-08-14T15:40:05;36.01;25.37
63976;DHT22;50167;47.958;21.780;2022-08-14T15:42:31;35.76;25.95
63976;DHT22;50167;47.958;21.780;2022-08-14T15:44:59;35.35;27.03
63976;DHT22;50167;47.958;21.780;2022-08-14T15:47:27;34.95;27.07
63976;DHT22;50167;47.958;21.780;2022-08-14T15:49:53;34.57;27.81
63976;DHT22;50167;47.958;21.780;2022-08-14T15:52:19;34.22;28.14
63976;DHT22;50167;47.958;21.780;2022-08-14T15:54:47;33.87;28.64
63976;DHT22;50167;47.958;21.780;2022-08-14T15:57:14;33.63;29.29
63976;DHT22;50167;47.958;21.780;2022-08-14T15:59:40;33.40;30.38
63976;DHT22;50167;47.958;21.780;2022-08-14T16:02:25;33.23;30.42
63976;DHT22;50167;47.958;21.780;2022-08-14T16:08:50;32.95;31.09
63976;DHT22;50167;47.958;21.780;2022-08-14T16:11:17;33.09;31.00
63976;DHT22;50167;47.958;21.780;2022-08-14T16:13:44;33.23;31.96
63976;DHT22;50167;47.958;21.780;2022-08-14T16:16:23;33.31;30.94
63976;DHT22;50167;47.958;21.780;2022-08-14T16:18:51;33.34;30.03
63976;DHT22;50167;47.958;21.780;2022-08-14T16:21:21;33.30;30.99
63976;DHT22;50167;47.958;21.780;2022-08-14T16:23:47;33.14;31.29
63976;DHT22;50167;47.958;21.780;2022-08-14T16:26:18;32.99;31.68
63976;DHT22;50167;47.958;21.780;2022-08-14T16:28:53;32.73;31.15
63976;DHT22;50167;47.958;21.780;2022-08-14T16:31:20;32.41;34.05
63976;DHT22;50167;47.958;21.780;2022-08-14T16:33:50;32.10;34.85
63976;DHT22;50167;47.958;21.780;2022-08-14T16:36:18;31.80;36.10
63976;DHT22;50167;47.958;21.780;2022-08-14T16:38:55;31.59;36.40